createdAt,value
2023-03-22T00:01:23.342Z,92.81
2023-03-22T00:03:51.832Z,95.02
2023-03-22T00:06:19.364Z,95.77
2023-03-22T00:08:51.293Z,95.16
2023-03-22T00:11:19.712Z,95.01
2023-03-22T00:13:47.089Z,93.65
2023-03-22T00:16:15.209Z,94.17
2023-03-22T00:18:42.155Z,94.59
2023-03-22T00:21:13.940Z,94.79
2023-03-22T00:23:41.424Z,97.07
2023-03-22T00:26:09.815Z,96.44
2023-03-22T00:28:37.009Z,94.46
2023-03-22T00:31:05.411Z,93.72
2023-03-22T00:33:32.844Z,93.54
2023-03-22T00:36:06.068Z,94.08
2023-03-22T00:38:43.861Z,95.15
2023-03-22T00:41:17.040Z,93.67
2023-03-22T00:43:45.264Z,94.46
2023-03-22T00:46:13.893Z,94.35
2023-03-22T00:48:40.720Z,93.37
2023-03-22T00:51:08.944Z,95.09
2023-03-22T00:53:42.389Z,96.11
2023-03-22T00:56:14.332Z,95.41
2023-03-22T00:58:42.697Z,94.87
2023-03-22T01:01:13.930Z,95.26
2023-03-22T01:03:42.800Z,94.53
2023-03-22T01:06:11.055Z,93.54
2023-03-22T01:08:38.856Z,99.04
2023-03-22T01:11:07.411Z,99.69
2023-03-22T01:13:37.571Z,99.43
2023-03-22T01:16:08.481Z,98.61
2023-03-22T01:18:36.097Z,97.39
2023-03-22T01:21:03.106Z,95.68
2023-03-22T01:23:29.929Z,96.36
2023-03-22T01:25:56.663Z,96.55
2023-03-22T01:28:25.798Z,96.63
2023-03-22T01:30:54.418Z,94.70
2023-03-22T01:33:21.296Z,94.08
2023-03-22T01:35:48.111Z,94.34
2023-03-22T01:38:14.936Z,94.46
2023-03-22T01:40:42.230Z,95.16
2023-03-22T01:43:17.359Z,94.89
2023-03-22T01:45:48.512Z,95.29
2023-03-22T01:48:26.020Z,95.05
2023-03-22T01:51:07.295Z,95.98
2023-03-22T01:53:41.142Z,95.20
2023-03-22T01:56:08.942Z,95.78
2023-03-22T01:58:37.554Z,95.64
2023-03-22T02:01:06.835Z,95.40
2023-03-22T02:03:59.471Z,95.96
2023-03-22T02:06:27.000Z,97.30
2023-03-22T02:08:58.052Z,97.15
2023-03-22T02:11:42.291Z,96.10
2023-03-22T02:15:01.858Z,96.50
2023-03-22T02:18:01.785Z,97.95
2023-03-22T02:20:49.822Z,97.74
2023-03-22T02:23:42.856Z,96.71
2023-03-22T02:26:53.477Z,96.05
2023-03-22T02:29:40.562Z,95.30
2023-03-22T02:32:19.288Z,95.59
2023-03-22T02:35:27.739Z,96.80
2023-03-22T02:38:45.957Z,97.30
2023-03-22T02:41:33.858Z,96.07
2023-03-22T02:44:37.069Z,95.47
2023-03-22T02:47:40.337Z,95.27
2023-03-22T02:50:15.453Z,95.53
2023-03-22T02:53:06.175Z,96.72
2023-03-22T02:56:06.765Z,97.08
2023-03-22T02:58:46.032Z,96.63
2023-03-22T03:01:26.154Z,96.48
2023-03-22T03:03:59.934Z,98.08
2023-03-22T03:06:32.637Z,97.40
2023-03-22T03:09:05.185Z,98.27
2023-03-22T03:11:32.776Z,97.26
2023-03-22T03:13:59.590Z,97.31
2023-03-22T03:16:29.528Z,96.12
2023-03-22T03:19:29.024Z,97.82
2023-03-22T03:22:10.032Z,97.85
2023-03-22T03:24:45.229Z,97.12
2023-03-22T03:27:27.482Z,96.96
2023-03-22T03:30:12.608Z,96.22
2023-03-22T03:32:47.876Z,97.17
2023-03-22T03:35:25.599Z,98.58
2023-03-22T03:38:10.011Z,100.00
2023-03-22T03:40:51.229Z,100.00
2023-03-22T03:43:19.053Z,99.83
2023-03-22T03:45:46.232Z,98.58
2023-03-22T03:48:22.650Z,98.59
2023-03-22T03:50:52.764Z,98.91
2023-03-22T03:53:19.507Z,98.25
2023-03-22T03:55:46.774Z,98.16
2023-03-22T03:58:13.505Z,97.80
2023-03-22T04:00:40.479Z,97.11
2023-03-22T04:03:07.446Z,97.68
2023-03-22T04:05:34.393Z,97.01
2023-03-22T04:08:01.259Z,97.72
2023-03-22T04:10:28.016Z,98.69
2023-03-22T04:12:54.844Z,100.00
2023-03-22T04:15:21.697Z,99.73
2023-03-22T04:17:48.494Z,98.43
2023-03-22T04:20:15.922Z,100.00
2023-03-22T04:22:43.087Z,100.00
2023-03-22T04:25:12.924Z,99.39
2023-03-22T04:27:40.958Z,98.78
2023-03-22T04:30:18.952Z,98.48
2023-03-22T04:32:50.005Z,99.68
2023-03-22T04:35:17.642Z,99.63
2023-03-22T04:37:45.800Z,99.46
2023-03-22T04:40:16.204Z,99.27
2023-03-22T04:42:44.321Z,98.40
2023-03-22T04:45:13.228Z,98.05
2023-03-22T04:47:40.401Z,97.69
2023-03-22T04:50:08.374Z,99.22
2023-03-22T04:52:35.355Z,99.26
2023-03-22T04:55:02.268Z,98.57
2023-03-22T04:57:29.076Z,97.96
2023-03-22T04:59:55.993Z,98.21
2023-03-22T05:02:22.874Z,98.89
2023-03-22T05:04:49.676Z,99.47
2023-03-22T05:07:16.517Z,99.28
2023-03-22T05:09:43.275Z,98.91
2023-03-22T05:12:10.028Z,98.98
2023-03-22T05:14:36.860Z,99.82
2023-03-22T05:17:04.106Z,100.00
2023-03-22T05:19:31.556Z,99.67
2023-03-22T05:22:02.248Z,98.88
2023-03-22T05:24:33.057Z,99.79
2023-03-22T05:27:03.415Z,99.73
2023-03-22T05:29:37.047Z,99.60
2023-03-22T05:32:04.690Z,100.00
2023-03-22T05:34:36.007Z,100.00
2023-03-22T05:37:04.244Z,100.00
2023-03-22T05:40:10.581Z,100.00
2023-03-22T05:49:52.826Z,100.00
2023-03-22T05:53:08.994Z,99.66
2023-03-22T06:01:53.676Z,100.00
2023-03-22T06:04:21.446Z,100.00
2023-03-22T06:06:49.355Z,100.00
2023-03-22T06:09:18.080Z,100.00
2023-03-22T06:11:45.615Z,100.00
2023-03-22T06:14:12.804Z,100.00
2023-03-22T06:16:39.645Z,100.00
2023-03-22T06:19:07.024Z,100.00
2023-03-22T06:21:33.799Z,100.00
2023-03-22T06:24:00.648Z,100.00
2023-03-22T06:26:27.531Z,100.00
2023-03-22T06:28:54.442Z,100.00
2023-03-22T06:31:21.328Z,100.00
2023-03-22T06:33:48.243Z,100.00
2023-03-22T06:36:15.038Z,100.00
2023-03-22T06:38:42.026Z,100.00
2023-03-22T06:41:08.836Z,100.00
2023-03-22T06:43:35.674Z,100.00
2023-03-22T06:46:02.490Z,100.00
2023-03-22T06:48:29.519Z,100.00
2023-03-22T06:50:56.397Z,100.00
2023-03-22T06:53:23.242Z,100.00
2023-03-22T06:55:50.137Z,100.00
2023-03-22T06:58:16.948Z,100.00
2023-03-22T07:00:43.872Z,100.00
2023-03-22T07:03:10.837Z,100.00
2023-03-22T07:05:37.670Z,100.00
2023-03-22T07:08:04.691Z,100.00
2023-03-22T07:10:31.497Z,100.00
2023-03-22T07:12:58.469Z,100.00
2023-03-22T07:15:25.248Z,100.00
2023-03-22T07:17:52.452Z,100.00
2023-03-22T07:20:20.143Z,100.00
2023-03-22T07:22:47.117Z,100.00
2023-03-22T07:25:13.851Z,100.00
2023-03-22T07:27:40.763Z,100.00
2023-03-22T07:30:09.807Z,100.00
2023-03-22T07:32:36.721Z,100.00
2023-03-22T07:35:03.585Z,100.00
2023-03-22T07:37:30.700Z,100.00
2023-03-22T07:39:57.519Z,100.00
2023-03-22T07:42:24.283Z,100.00
2023-03-22T07:44:51.236Z,100.00
2023-03-22T07:47:27.228Z,100.00
2023-03-22T07:50:01.510Z,100.00
2023-03-22T07:52:28.295Z,100.00
2023-03-22T07:54:55.031Z,100.00
2023-03-22T07:57:21.812Z,100.00
2023-03-22T07:59:48.591Z,100.00
2023-03-22T08:02:16.286Z,100.00
2023-03-22T08:04:43.133Z,100.00
2023-03-22T08:07:10.182Z,100.00
2023-03-22T08:09:37.775Z,100.00
2023-03-22T08:12:04.982Z,100.00
2023-03-22T08:14:36.643Z,100.00
2023-03-22T08:17:06.150Z,100.00
2023-03-22T08:19:34.326Z,94.96
2023-03-22T08:22:02.114Z,95.61
2023-03-22T08:24:28.989Z,88.06
2023-03-22T08:26:56.527Z,84.09
2023-03-22T08:29:23.820Z,83.33
2023-03-22T08:31:51.492Z,80.06
2023-03-22T08:34:18.386Z,76.89
2023-03-22T08:36:45.349Z,79.07
2023-03-22T08:39:12.376Z,77.87
2023-03-22T08:41:40.347Z,76.04
2023-03-22T08:44:07.448Z,74.31
2023-03-22T08:46:34.424Z,70.92
2023-03-22T08:49:02.764Z,73.09
2023-03-22T08:51:31.513Z,70.94
2023-03-22T08:54:00.356Z,68.04
2023-03-22T08:56:27.731Z,67.17
2023-03-22T08:58:54.581Z,69.09
2023-03-22T09:01:21.782Z,67.45
2023-03-22T09:03:48.718Z,66.62
2023-03-22T09:06:15.594Z,65.57
2023-03-22T09:08:42.563Z,66.41
2023-03-22T09:11:10.992Z,64.59
2023-03-22T09:13:38.157Z,64.33
2023-03-22T09:16:08.929Z,64.85
2023-03-22T09:18:39.944Z,64.94
2023-03-22T09:21:08.709Z,63.60
2023-03-22T09:23:38.059Z,63.63
2023-03-22T09:26:08.933Z,61.35
2023-03-22T09:28:36.812Z,61.01
2023-03-22T09:31:08.003Z,61.62
2023-03-22T09:33:36.712Z,61.15
2023-03-22T09:36:04.354Z,60.80
2023-03-22T09:38:33.757Z,58.18
2023-03-22T09:41:12.365Z,58.75
2023-03-22T09:43:45.059Z,59.92
2023-03-22T09:46:29.970Z,58.58
2023-03-22T09:49:00.018Z,58.27
2023-03-22T09:51:45.479Z,57.04
2023-03-22T09:54:34.615Z,57.00
2023-03-22T09:57:37.602Z,54.61
2023-03-22T10:00:21.143Z,53.68
2023-03-22T10:03:10.792Z,56.04
2023-03-22T10:06:14.289Z,57.37
2023-03-22T10:09:01.904Z,56.99
2023-03-22T10:11:50.056Z,55.24
2023-03-22T10:14:42.549Z,55.61
2023-03-22T10:17:18.783Z,55.28
2023-03-22T10:20:09.558Z,55.81
2023-03-22T10:22:41.141Z,56.63
2023-03-22T10:25:09.994Z,54.75
2023-03-22T10:27:38.130Z,52.70
2023-03-22T10:30:20.273Z,50.91
2023-03-22T10:32:58.385Z,50.39
2023-03-22T10:35:26.091Z,49.60
2023-03-22T10:37:55.367Z,46.34
2023-03-22T10:40:32.183Z,47.30
2023-03-22T10:43:22.648Z,47.12
2023-03-22T10:45:52.289Z,48.69
2023-03-22T10:48:33.260Z,49.49
2023-03-22T10:51:04.638Z,49.45
2023-03-22T10:53:46.883Z,48.21
2023-03-22T10:56:18.864Z,46.83
2023-03-22T10:58:47.163Z,46.22
2023-03-22T11:01:17.362Z,46.19
2023-03-22T11:03:49.903Z,46.00
2023-03-22T11:06:30.068Z,47.99
2023-03-22T11:09:22.473Z,49.39
2023-03-22T11:12:00.840Z,44.32
2023-03-22T11:14:37.003Z,42.98
2023-03-22T11:17:06.460Z,42.96
2023-03-22T11:19:40.015Z,41.93
2023-03-22T11:22:25.746Z,42.95
2023-03-22T11:24:52.869Z,42.47
2023-03-22T11:27:31.342Z,42.46
2023-03-22T11:30:09.589Z,40.82
2023-03-22T11:32:39.331Z,42.46
2023-03-22T11:35:28.019Z,40.53
2023-03-22T11:37:56.492Z,40.70
2023-03-22T11:40:32.849Z,41.10
2023-03-22T11:43:26.993Z,40.74
2023-03-22T11:45:58.154Z,41.30
2023-03-22T11:48:30.151Z,41.24
2023-03-22T11:51:07.502Z,39.34
2023-03-22T11:53:41.143Z,42.71
2023-03-22T11:56:12.775Z,43.35
2023-03-22T11:58:42.370Z,42.27
2023-03-22T12:01:19.860Z,40.49
2023-03-22T12:03:52.650Z,40.08
2023-03-22T12:06:29.502Z,40.54
2023-03-22T12:09:10.713Z,41.78
2023-03-22T12:11:46.005Z,42.29
2023-03-22T12:14:51.274Z,43.13
2023-03-22T12:17:28.428Z,41.69
2023-03-22T12:20:07.015Z,40.99
2023-03-22T12:22:41.931Z,40.38
2023-03-22T12:25:23.166Z,40.03
2023-03-22T12:28:16.494Z,38.30
2023-03-22T12:30:56.525Z,36.13
2023-03-22T12:33:41.448Z,36.86
2023-03-22T12:36:14.853Z,38.45
2023-03-22T12:38:49.957Z,37.35
2023-03-22T12:41:26.428Z,38.37
2023-03-22T12:43:56.132Z,37.37
2023-03-22T12:46:26.775Z,37.72
2023-03-22T12:49:16.519Z,37.45
2023-03-22T12:51:46.846Z,37.41
2023-03-22T12:54:16.953Z,38.82
2023-03-22T12:56:46.218Z,37.41
2023-03-22T12:59:26.791Z,36.62
2023-03-22T13:02:10.128Z,37.00
2023-03-22T13:04:37.018Z,37.00
2023-03-22T13:07:18.044Z,36.24
2023-03-22T13:09:50.841Z,36.65
2023-03-22T13:12:17.574Z,35.54
2023-03-22T13:15:01.009Z,33.47
2023-03-22T13:17:27.876Z,34.85
2023-03-22T13:20:24.001Z,33.67
2023-03-22T13:22:51.083Z,33.60
2023-03-22T13:25:19.124Z,33.64
2023-03-22T13:27:46.018Z,33.79
2023-03-22T13:30:28.108Z,34.32
2023-03-22T13:33:20.779Z,31.40
2023-03-22T13:35:54.072Z,32.96
2023-03-22T13:38:25.216Z,31.59
2023-03-22T13:41:00.875Z,31.98
2023-03-22T13:43:53.078Z,32.53
2023-03-22T13:46:22.890Z,31.41
2023-03-22T13:48:53.013Z,31.08
2023-03-22T13:51:30.530Z,32.14
2023-03-22T13:54:18.196Z,31.74
2023-03-22T13:56:56.566Z,32.02
2023-03-22T13:59:32.324Z,31.16
2023-03-22T14:02:30.152Z,30.79
2023-03-22T14:05:04.260Z,30.84
2023-03-22T14:07:44.484Z,31.60
2023-03-22T14:10:39.073Z,30.08
2023-03-22T14:13:16.877Z,30.85
2023-03-22T14:15:51.692Z,30.29
2023-03-22T14:18:25.977Z,30.46
2023-03-22T14:21:39.019Z,30.05
2023-03-22T14:52:37.081Z,30.70
2023-03-22T14:55:11.621Z,31.17
2023-03-22T14:57:47.441Z,31.13
2023-03-22T15:00:19.426Z,31.69
2023-03-22T15:03:03.838Z,31.37
2023-03-22T15:05:40.676Z,31.47
2023-03-22T15:08:17.381Z,31.46
2023-03-22T15:10:49.442Z,31.92
2023-03-22T15:13:17.730Z,30.87
2023-03-22T15:15:46.175Z,31.47
2023-03-22T15:18:17.279Z,30.46
2023-03-22T15:20:47.646Z,29.40
2023-03-22T15:23:16.245Z,28.31
2023-03-22T15:25:49.104Z,29.40
2023-03-22T15:28:21.533Z,29.41
2023-03-22T15:30:53.047Z,29.55
2023-03-22T15:33:27.935Z,28.28
2023-03-22T15:35:56.721Z,28.18
2023-03-22T15:38:46.722Z,28.74
2023-03-22T15:41:26.297Z,29.60
2023-03-22T15:44:25.844Z,30.60
2023-03-22T15:47:06.259Z,30.08
2023-03-22T15:49:33.097Z,30.72
2023-03-22T15:52:12.931Z,30.69
2023-03-22T15:55:11.107Z,30.81
2023-03-22T15:57:52.976Z,31.17
2023-03-22T16:00:21.955Z,31.46
2023-03-22T16:03:15.281Z,30.93
2023-03-22T16:05:45.872Z,31.95
2023-03-22T16:08:15.615Z,32.76
2023-03-22T16:10:47.085Z,32.95
2023-03-22T16:13:25.194Z,32.48
2023-03-22T16:15:52.755Z,32.97
2023-03-22T16:18:22.213Z,33.25
2023-03-22T16:20:51.368Z,33.02
2023-03-22T16:23:22.133Z,33.93
2023-03-22T16:25:49.665Z,33.18
2023-03-22T16:28:16.800Z,34.19
2023-03-22T16:30:45.086Z,34.34
2023-03-22T16:33:14.999Z,34.22
2023-03-22T16:35:42.327Z,34.30
2023-03-22T16:38:14.717Z,35.25
2023-03-22T16:40:52.575Z,35.94
2023-03-22T16:43:20.394Z,35.26
2023-03-22T16:45:49.018Z,34.77
2023-03-22T16:48:16.364Z,35.81
2023-03-22T16:50:46.143Z,37.51
2023-03-22T16:53:16.971Z,39.06
2023-03-22T16:55:46.309Z,39.84
2023-03-22T16:58:14.572Z,40.54
2023-03-22T17:00:41.943Z,40.57
2023-03-22T17:03:13.243Z,40.24
2023-03-22T17:05:40.155Z,40.67
2023-03-22T17:08:18.431Z,41.06
2023-03-22T17:10:46.443Z,41.59
2023-03-22T17:13:18.057Z,42.08
2023-03-22T17:15:48.684Z,42.44
2023-03-22T17:18:16.023Z,42.87
2023-03-22T17:20:46.698Z,43.50
2023-03-22T17:23:14.670Z,44.12
2023-03-22T17:25:44.809Z,43.99
2023-03-22T17:28:13.122Z,44.26
2023-03-22T17:30:40.669Z,44.86
2023-03-22T17:33:09.817Z,45.31
2023-03-22T17:35:37.427Z,45.98
2023-03-22T17:38:04.894Z,45.92
2023-03-22T17:40:45.227Z,46.47
2023-03-22T17:43:18.152Z,46.48
2023-03-22T17:48:18.404Z,47.80
2023-03-22T17:50:45.425Z,49.22
2023-03-22T17:53:29.140Z,49.74
2023-03-22T17:56:30.946Z,50.20
2023-03-22T17:58:46.983Z,52.33
2023-03-22T18:01:18.810Z,54.48
2023-03-22T18:03:46.033Z,54.72
2023-03-22T18:06:12.966Z,54.85
2023-03-22T18:08:40.019Z,54.15
2023-03-22T18:11:07.167Z,55.38
2023-03-22T18:13:35.472Z,56.95
2023-03-22T18:16:02.414Z,56.94
2023-03-22T18:18:34.267Z,56.53
2023-03-22T18:21:03.787Z,56.76
2023-03-22T18:23:31.172Z,56.51
2023-03-22T18:26:01.843Z,57.37
2023-03-22T18:28:30.483Z,57.53
2023-03-22T18:30:58.252Z,58.20
2023-03-22T18:33:27.454Z,59.10
2023-03-22T18:35:59.024Z,58.47
2023-03-22T18:38:56.613Z,58.56
2023-03-22T18:41:37.678Z,60.12
2023-03-22T18:44:02.005Z,60.43
2023-03-22T18:46:28.904Z,61.11
2023-03-22T18:48:55.914Z,60.81
2023-03-22T18:51:22.909Z,60.96
2023-03-22T18:53:50.993Z,60.92
2023-03-22T18:56:18.816Z,62.20
2023-03-22T18:58:46.076Z,63.43
2023-03-22T19:01:13.066Z,65.01
2023-03-22T19:03:40.467Z,65.10
2023-03-22T19:06:15.563Z,65.18
2023-03-22T19:08:44.068Z,64.10
2023-03-22T19:11:11.965Z,64.22
2023-03-22T19:14:06.135Z,65.43
2023-03-22T19:16:26.196Z,66.28
2023-03-22T19:18:53.081Z,67.06
2023-03-22T19:21:30.418Z,67.97
2023-03-22T19:23:59.125Z,67.53
2023-03-22T19:26:27.967Z,67.62
2023-03-22T19:28:59.192Z,68.40
2023-03-22T19:31:31.422Z,68.61
2023-03-22T19:33:59.715Z,68.58
2023-03-22T19:36:27.879Z,68.59
2023-03-22T19:38:58.616Z,68.36
2023-03-22T19:43:59.053Z,68.17
2023-03-22T19:46:27.070Z,68.13
2023-03-22T19:48:53.948Z,68.19
2023-03-22T19:51:21.008Z,69.30
2023-03-22T19:54:18.632Z,69.29
2023-03-22T19:56:35.328Z,70.67
2023-03-22T19:59:03.387Z,70.95
2023-03-22T20:01:30.329Z,71.24
2023-03-22T20:03:57.435Z,70.59
2023-03-22T20:06:25.074Z,70.84
2023-03-22T20:08:51.956Z,71.58
2023-03-22T20:11:27.618Z,74.03
2023-03-22T20:14:01.284Z,74.02
2023-03-22T20:16:28.525Z,75.77
2023-03-22T20:18:55.651Z,76.61
2023-03-22T20:21:23.381Z,77.04
2023-03-22T20:23:50.936Z,75.92
2023-03-22T20:26:18.823Z,76.49
2023-03-22T20:28:46.729Z,77.55
2023-03-22T20:31:16.521Z,77.41
2023-03-22T20:33:44.200Z,78.74
2023-03-22T20:36:12.608Z,77.81
2023-03-22T20:38:44.213Z,77.61
2023-03-22T20:41:15.065Z,79.76
2023-03-22T20:43:44.624Z,79.55
2023-03-22T20:46:14.182Z,80.12
2023-03-22T20:48:41.496Z,81.44
2023-03-22T20:51:08.629Z,80.96
2023-03-22T20:53:35.626Z,79.42
2023-03-22T20:56:02.589Z,79.95
2023-03-22T20:58:29.739Z,79.98
2023-03-22T21:00:56.652Z,79.73
2023-03-22T21:03:24.169Z,78.68
2023-03-22T21:05:51.345Z,78.97
2023-03-22T21:08:18.363Z,78.79
2023-03-22T21:10:45.631Z,79.87
2023-03-22T21:13:13.269Z,78.02
2023-03-22T21:15:42.812Z,76.93
2023-03-22T21:18:10.694Z,78.92
2023-03-22T21:20:37.910Z,84.37
2023-03-22T21:23:05.644Z,84.77
2023-03-22T21:25:32.509Z,82.45
2023-03-22T21:27:59.867Z,80.80
2023-03-22T21:30:27.020Z,79.29
2023-03-22T21:32:54.028Z,82.08
2023-03-22T21:35:21.686Z,81.87
2023-03-22T21:37:48.561Z,82.10
2023-03-22T21:40:17.873Z,80.31
2023-03-22T21:42:46.916Z,81.44
2023-03-22T21:45:15.001Z,80.91
2023-03-22T21:47:43.798Z,81.41
2023-03-22T21:50:11.528Z,81.77
2023-03-22T21:52:38.440Z,81.40
2023-03-22T21:55:06.636Z,81.26
2023-03-22T21:57:33.515Z,80.90
2023-03-22T22:00:00.687Z,80.84
2023-03-22T22:02:27.829Z,81.45
2023-03-22T22:04:54.878Z,82.47
2023-03-22T22:07:21.958Z,81.69
2023-03-22T22:09:49.040Z,82.20
2023-03-22T22:12:16.985Z,82.27
2023-03-22T22:14:44.470Z,83.69
2023-03-22T22:17:12.604Z,82.80
2023-03-22T22:19:40.820Z,83.74
2023-03-22T22:22:08.012Z,84.23
2023-03-22T22:24:35.068Z,85.98
2023-03-22T22:27:02.157Z,84.67
2023-03-22T22:29:29.037Z,83.93
2023-03-22T22:31:56.282Z,84.99
2023-03-22T22:34:23.328Z,83.62
2023-03-22T22:36:50.588Z,84.68
2023-03-22T22:39:17.480Z,84.88
2023-03-22T22:41:44.742Z,85.19
2023-03-22T22:44:11.924Z,86.27
2023-03-22T22:46:39.025Z,84.84
2023-03-22T22:49:06.088Z,85.27
2023-03-22T22:51:33.395Z,85.32
2023-03-22T22:54:01.097Z,86.87
2023-03-22T22:56:29.375Z,87.97
2023-03-22T22:58:56.374Z,85.54
2023-03-22T23:01:23.287Z,86.61
2023-03-22T23:03:50.528Z,87.36
2023-03-22T23:06:22.936Z,86.85
2023-03-22T23:08:55.620Z,85.62
2023-03-22T23:11:25.936Z,84.76
2023-03-22T23:13:53.918Z,84.82
2023-03-22T23:16:25.173Z,85.43
2023-03-22T23:18:58.412Z,86.42
2023-03-22T23:21:34.527Z,87.54
2023-03-22T23:24:01.495Z,88.13
2023-03-22T23:26:28.798Z,88.32
2023-03-22T23:28:59.361Z,88.92
2023-03-22T23:31:32.078Z,87.67
2023-03-22T23:34:03.781Z,87.70
2023-03-22T23:36:32.770Z,87.96
2023-03-22T23:39:04.200Z,87.40
2023-03-22T23:41:33.375Z,86.68
2023-03-22T23:44:00.703Z,87.12
2023-03-22T23:46:29.671Z,87.42
2023-03-22T23:48:59.972Z,86.72
2023-03-22T23:51:27.987Z,87.96
2023-03-22T23:53:55.169Z,89.34
2023-03-22T23:56:23.086Z,88.34
2023-03-22T23:58:52.375Z,87.51
